createdAt,value
2022-08-07T00:00:30.633Z,11.21
2022-08-07T00:02:57.909Z,11.25
2022-08-07T00:05:27.396Z,11.31
2022-08-07T00:07:59.928Z,11.32
2022-08-07T00:10:31.878Z,11.33
2022-08-07T00:13:23.519Z,11.25
2022-08-07T00:15:53.577Z,11.30
2022-08-07T00:18:27.718Z,11.20
2022-08-07T00:21:08.010Z,11.02
2022-08-07T00:23:51.135Z,11.07
2022-08-07T00:26:48.654Z,11.05
2022-08-07T00:29:05.165Z,11.00
2022-08-07T00:31:37.987Z,11.07
2022-08-07T00:34:09.532Z,10.97
2022-08-07T00:36:43.244Z,10.93
2022-08-07T00:39:16.414Z,10.98
2022-08-07T00:42:02.369Z,10.93
2022-08-07T00:44:35.312Z,10.97
2022-08-07T00:47:15.635Z,10.92
2022-08-07T00:50:19.950Z,10.89
2022-08-07T00:52:47.435Z,10.93
2022-08-07T00:55:17.532Z,10.89
2022-08-07T00:57:55.882Z,10.92
2022-08-07T01:00:25.432Z,10.85
2022-08-07T01:02:52.693Z,10.76
2022-08-07T01:05:24.551Z,10.72
2022-08-07T01:07:52.389Z,10.75
2022-08-07T01:10:20.881Z,10.69
2022-08-07T01:12:54.202Z,10.72
2022-08-07T01:16:00.563Z,10.61
2022-08-07T01:18:17.636Z,10.56
2022-08-07T01:21:22.760Z,10.63
2022-08-07T01:23:57.525Z,10.72
2022-08-07T01:26:26.126Z,10.69
2022-08-07T01:28:55.899Z,10.68
2022-08-07T01:31:42.811Z,10.63
2022-08-07T01:34:18.736Z,10.48
2022-08-07T01:36:52.644Z,10.50
2022-08-07T01:39:40.718Z,10.53
2022-08-07T01:42:39.718Z,10.55
2022-08-07T01:45:10.094Z,10.41
2022-08-07T01:48:21.111Z,10.29
2022-08-07T01:50:37.746Z,10.27
2022-08-07T01:53:20.801Z,10.05
2022-08-07T01:56:03.579Z,10.03
2022-08-07T01:58:40.947Z,10.10
2022-08-07T02:01:59.802Z,10.10
2022-08-07T02:04:55.821Z,9.93
2022-08-07T02:07:36.114Z,9.98
2022-08-07T02:10:23.568Z,9.91
2022-08-07T02:12:56.445Z,9.74
2022-08-07T02:15:31.734Z,9.72
2022-08-07T02:18:04.535Z,9.66
2022-08-07T02:20:34.422Z,9.58
2022-08-07T02:23:06.155Z,9.61
2022-08-07T02:26:31.439Z,9.65
2022-08-07T02:28:33.198Z,9.72
2022-08-07T02:31:19.102Z,9.73
2022-08-07T02:34:10.972Z,9.66
2022-08-07T02:36:42.566Z,9.49
2022-08-07T02:39:16.717Z,9.48
2022-08-07T02:42:09.863Z,9.47
2022-08-07T02:44:48.873Z,9.49
2022-08-07T02:47:23.733Z,9.54
2022-08-07T02:49:58.284Z,9.61
2022-08-07T02:52:48.724Z,9.59
2022-08-07T02:56:02.548Z,9.60
2022-08-07T02:58:23.750Z,9.67
2022-08-07T03:01:00.097Z,9.73
2022-08-07T03:03:50.038Z,9.73
2022-08-07T03:06:25.664Z,9.72
2022-08-07T03:09:04.131Z,9.68
2022-08-07T03:11:38.688Z,9.68
2022-08-07T03:14:08.041Z,9.70
2022-08-07T03:16:36.556Z,9.66
2022-08-07T03:19:07.773Z,9.70
2022-08-07T03:21:36.112Z,9.76
2022-08-07T03:24:19.966Z,9.72
2022-08-07T03:26:58.986Z,9.68
2022-08-07T03:29:36.772Z,9.64
2022-08-07T03:32:13.013Z,9.55
2022-08-07T03:34:47.487Z,9.51
2022-08-07T03:37:45.997Z,9.51
2022-08-07T03:40:22.782Z,9.52
2022-08-07T03:42:52.632Z,9.53
2022-08-07T03:45:30.085Z,9.56
2022-08-07T03:48:00.149Z,9.56
2022-08-07T03:50:29.597Z,9.52
2022-08-07T03:53:01.096Z,9.50
2022-08-07T03:55:52.953Z,9.53
2022-08-07T03:59:05.643Z,9.50
2022-08-07T04:01:14.487Z,9.51
2022-08-07T04:03:53.476Z,9.55
2022-08-07T04:06:36.311Z,9.57
2022-08-07T04:09:15.279Z,9.59
2022-08-07T04:12:27.985Z,9.57
2022-08-07T04:14:38.401Z,9.61
2022-08-07T04:17:21.255Z,9.67
2022-08-07T04:19:54.493Z,9.68
2022-08-07T04:22:28.919Z,9.72
2022-08-07T04:25:01.628Z,9.82
2022-08-07T04:27:35.830Z,9.91
2022-08-07T04:30:21.089Z,9.93
2022-08-07T04:32:58.392Z,9.97
2022-08-07T04:35:26.783Z,9.98
2022-08-07T04:38:03.044Z,9.98
2022-08-07T04:40:32.456Z,10.05
2022-08-07T04:43:01.591Z,10.15
2022-08-07T04:46:00.846Z,10.24
2022-08-07T04:48:50.871Z,10.32
2022-08-07T04:52:03.004Z,10.39
2022-08-07T04:55:14.886Z,10.45
2022-08-07T04:58:27.922Z,10.53
2022-08-07T05:01:30.064Z,10.67
2022-08-07T05:04:17.290Z,10.74
2022-08-07T05:07:09.560Z,10.82
2022-08-07T05:10:11.059Z,10.92
2022-08-07T05:14:52.166Z,11.00
2022-08-07T05:16:08.764Z,11.13
2022-08-07T05:18:56.197Z,11.23
2022-08-07T05:22:00.596Z,11.44
2022-08-07T05:24:30.299Z,11.62
2022-08-07T05:27:02.880Z,11.85
2022-08-07T05:29:51.193Z,12.10
2022-08-07T05:32:26.153Z,12.44
2022-08-07T05:34:56.696Z,12.83
2022-08-07T05:37:25.953Z,13.15
2022-08-07T05:40:16.858Z,13.46
2022-08-07T05:42:56.370Z,13.73
2022-08-07T05:45:47.771Z,13.93
2022-08-07T05:48:16.604Z,14.23
2022-08-07T05:50:44.559Z,14.42
2022-08-07T05:54:12.422Z,14.73
2022-08-07T05:56:02.184Z,14.82
2022-08-07T05:58:37.709Z,15.03
2022-08-07T06:01:11.097Z,15.22
2022-08-07T06:03:56.769Z,15.47
2022-08-07T06:06:29.499Z,15.77
2022-08-07T06:08:58.299Z,15.92
2022-08-07T06:11:27.279Z,16.22
2022-08-07T06:14:12.583Z,16.48
2022-08-07T06:16:50.543Z,16.66
2022-08-07T06:19:52.143Z,16.80
2022-08-07T06:22:24.019Z,17.12
2022-08-07T06:24:58.331Z,17.32
2022-08-07T06:27:59.926Z,17.41
2022-08-07T06:30:24.189Z,17.81
2022-08-07T06:33:00.270Z,17.99
2022-08-07T06:35:38.929Z,17.96
2022-08-07T06:38:20.544Z,18.19
2022-08-07T06:40:56.175Z,18.65
2022-08-07T06:43:27.675Z,18.80
2022-08-07T06:46:12.347Z,19.01
2022-08-07T06:48:42.008Z,19.27
2022-08-07T06:51:24.548Z,19.28
2022-08-07T06:55:31.286Z,19.40
2022-08-07T06:56:55.037Z,19.70
2022-08-07T07:00:13.579Z,19.99
2022-08-07T07:02:48.106Z,19.73
2022-08-07T07:05:13.799Z,19.94
2022-08-07T07:08:06.832Z,20.11
2022-08-07T07:10:36.451Z,19.98
2022-08-07T07:13:56.031Z,20.21
2022-08-07T07:16:27.646Z,20.54
2022-08-07T07:19:40.930Z,20.51
2022-08-07T07:22:04.999Z,20.44
2022-08-07T07:24:56.645Z,20.56
2022-08-07T07:27:56.322Z,20.76
2022-08-07T07:30:39.885Z,21.17
2022-08-07T07:33:15.148Z,21.53
2022-08-07T07:36:04.920Z,21.70
2022-08-07T07:38:34.963Z,21.67
2022-08-07T07:41:11.097Z,21.24
2022-08-07T07:44:16.891Z,21.35
2022-08-07T07:46:54.205Z,21.40
2022-08-07T07:50:33.337Z,21.18
2022-08-07T07:52:24.387Z,21.51
2022-08-07T07:54:55.473Z,21.74
2022-08-07T07:57:44.134Z,21.75
2022-08-07T08:00:28.958Z,22.04
2022-08-07T08:03:16.950Z,22.05
2022-08-07T08:06:06.364Z,22.03
2022-08-07T08:08:43.716Z,22.33
2022-08-07T08:11:16.110Z,22.04
2022-08-07T08:13:53.802Z,22.15
2022-08-07T08:16:35.049Z,21.33
2022-08-07T08:20:15.715Z,21.89
2022-08-07T08:22:19.590Z,21.99
2022-08-07T08:25:24.974Z,21.75
2022-08-07T08:28:08.813Z,21.50
2022-08-07T08:30:42.530Z,21.43
2022-08-07T08:33:18.874Z,21.44
2022-08-07T08:35:55.927Z,22.43
2022-08-07T08:38:38.579Z,22.59
2022-08-07T08:41:58.981Z,22.62
2022-08-07T08:45:13.795Z,23.16
2022-08-07T08:48:28.278Z,22.95
2022-08-07T08:51:14.703Z,23.17
2022-08-07T08:54:26.353Z,22.08
2022-08-07T08:57:00.273Z,22.62
2022-08-07T09:00:01.639Z,23.07
2022-08-07T09:03:03.805Z,23.36
2022-08-07T09:06:16.801Z,22.40
2022-08-07T09:09:21.158Z,23.15
2022-08-07T09:12:30.969Z,23.28
2022-08-07T09:16:22.201Z,22.88
2022-08-07T09:19:52.962Z,22.62
2022-08-07T09:24:31.969Z,22.20
2022-08-07T09:26:17.221Z,22.57
2022-08-07T09:30:06.561Z,23.05
2022-08-07T09:32:50.735Z,23.84
2022-08-07T09:36:04.741Z,23.99
2022-08-07T09:39:00.068Z,24.40
2022-08-07T09:42:17.167Z,24.13
2022-08-07T09:47:24.819Z,23.88
2022-08-07T09:48:20.590Z,23.79
2022-08-07T09:52:16.021Z,23.65
2022-08-07T09:54:58.344Z,23.73
2022-08-07T09:58:05.088Z,24.01
2022-08-07T10:01:53.718Z,24.22
2022-08-07T10:04:57.347Z,24.80
2022-08-07T10:08:04.472Z,25.11
2022-08-07T10:11:08.788Z,24.76
2022-08-07T10:14:47.431Z,24.55
2022-08-07T10:18:08.623Z,24.09
2022-08-07T10:22:12.136Z,24.09
2022-08-07T10:24:59.531Z,24.37
2022-08-07T10:28:12.603Z,24.13
2022-08-07T10:31:39.143Z,24.48
2022-08-07T10:34:42.768Z,24.80
2022-08-07T10:38:00.340Z,25.24
2022-08-07T10:40:56.144Z,24.98
2022-08-07T10:44:07.573Z,24.14
2022-08-07T10:47:17.715Z,24.45
2022-08-07T10:50:08.705Z,24.69
2022-08-07T10:53:44.283Z,24.75
2022-08-07T10:56:53.834Z,24.80
2022-08-07T11:00:05.287Z,24.09
2022-08-07T11:03:17.294Z,23.50
2022-08-07T11:06:11.265Z,23.59
2022-08-07T11:10:09.714Z,23.60
2022-08-07T11:12:31.472Z,23.28
2022-08-07T11:15:17.416Z,22.63
2022-08-07T11:18:09.555Z,22.81
2022-08-07T11:21:00.057Z,22.73
2022-08-07T11:23:57.753Z,22.95
2022-08-07T11:26:49.935Z,22.94
2022-08-07T11:29:48.324Z,22.96
2022-08-07T11:33:54.079Z,23.05
2022-08-07T11:37:00.403Z,23.17
2022-08-07T11:40:00.771Z,23.19
2022-08-07T11:43:08.294Z,23.38
2022-08-07T11:46:26.523Z,23.54
2022-08-07T11:50:30.504Z,23.74
2022-08-07T11:54:01.167Z,23.83
2022-08-07T11:56:56.239Z,23.61
2022-08-07T12:00:11.410Z,23.70
2022-08-07T12:03:49.937Z,24.03
2022-08-07T12:07:01.013Z,24.36
2022-08-07T12:10:08.491Z,24.41
2022-08-07T12:13:11.377Z,24.27
2022-08-07T12:16:06.890Z,24.20
2022-08-07T12:19:07.680Z,24.42
2022-08-07T12:22:38.742Z,24.38
2022-08-07T12:26:06.252Z,24.14
2022-08-07T12:29:38.358Z,23.89
2022-08-07T12:32:42.201Z,23.95
2022-08-07T12:35:15.960Z,24.26
2022-08-07T12:38:09.026Z,24.07
2022-08-07T12:40:47.110Z,23.56
2022-08-07T12:44:02.349Z,22.97
2022-08-07T12:46:51.874Z,22.96
2022-08-07T12:49:53.389Z,22.94
2022-08-07T12:52:52.283Z,22.88
2022-08-07T12:56:02.070Z,22.94
2022-08-07T12:58:39.510Z,23.36
2022-08-07T13:01:43.362Z,23.75
2022-08-07T13:05:03.001Z,24.30
2022-08-07T13:08:38.625Z,24.05
2022-08-07T13:12:03.083Z,24.19
2022-08-07T13:16:00.505Z,24.33
2022-08-07T13:18:44.503Z,24.59
2022-08-07T13:21:54.941Z,24.56
2022-08-07T13:24:56.433Z,24.87
2022-08-07T13:28:12.575Z,24.99
2022-08-07T13:30:48.905Z,25.24
2022-08-07T13:34:33.615Z,24.76
2022-08-07T13:37:10.422Z,25.20
2022-08-07T13:40:34.346Z,25.49
2022-08-07T13:43:16.055Z,25.38
2022-08-07T13:46:11.339Z,25.74
2022-08-07T13:48:59.437Z,25.87
2022-08-07T13:52:04.865Z,26.11
2022-08-07T13:54:33.580Z,26.02
2022-08-07T13:57:08.593Z,25.65
2022-08-07T13:59:54.859Z,25.37
2022-08-07T14:02:29.728Z,25.06
2022-08-07T14:05:23.623Z,24.39
2022-08-07T14:07:59.981Z,24.13
2022-08-07T14:10:43.568Z,23.74
2022-08-07T14:13:33.617Z,23.64
2022-08-07T14:16:16.039Z,23.66
2022-08-07T14:18:56.976Z,24.27
2022-08-07T14:22:02.997Z,24.98
2022-08-07T14:24:49.261Z,25.32
2022-08-07T14:28:11.178Z,25.87
2022-08-07T14:30:32.846Z,26.09
2022-08-07T14:33:06.493Z,26.45
2022-08-07T14:35:45.646Z,26.49
2022-08-07T14:38:30.399Z,26.02
2022-08-07T14:41:14.607Z,26.57
2022-08-07T14:43:57.455Z,26.89
2022-08-07T14:46:33.525Z,27.10
2022-08-07T14:49:57.629Z,27.46
2022-08-07T14:52:04.751Z,27.82
2022-08-07T14:54:43.447Z,27.91
2022-08-07T15:00:07.010Z,27.05
2022-08-07T15:02:37.394Z,27.46
2022-08-07T15:05:20.417Z,27.94
2022-08-07T15:07:53.477Z,28.25
2022-08-07T15:10:30.148Z,28.54
2022-08-07T15:13:13.819Z,28.60
2022-08-07T15:15:52.585Z,28.55
2022-08-07T15:18:36.343Z,28.90
2022-08-07T15:21:58.790Z,28.65
2022-08-07T15:25:16.169Z,29.42
2022-08-07T15:27:29.972Z,29.14
2022-08-07T15:30:16.517Z,29.07
2022-08-07T15:33:01.569Z,29.76
2022-08-07T15:38:33.178Z,29.68
2022-08-07T15:42:43.485Z,29.92
2022-08-07T15:44:23.613Z,30.20
2022-08-07T15:47:16.885Z,29.83
2022-08-07T15:50:04.159Z,29.85
2022-08-07T15:52:38.367Z,30.10
2022-08-07T15:55:15.298Z,30.60
2022-08-07T15:57:53.293Z,30.81
2022-08-07T16:00:40.008Z,30.85
2022-08-07T16:03:46.360Z,30.41
2022-08-07T16:06:16.667Z,30.00
2022-08-07T16:08:49.690Z,30.13
2022-08-07T16:11:53.502Z,30.48
2022-08-07T16:14:59.213Z,29.80
2022-08-07T16:18:01.651Z,29.39
2022-08-07T16:21:56.990Z,29.52
2022-08-07T16:24:35.305Z,29.19
2022-08-07T16:27:24.384Z,28.41
2022-08-07T16:30:30.131Z,27.04
2022-08-07T16:34:02.679Z,26.19
2022-08-07T16:37:02.737Z,25.47
2022-08-07T16:41:02.226Z,24.97
2022-08-07T16:44:47.154Z,24.56
2022-08-07T16:48:09.563Z,24.37
2022-08-07T16:52:49.130Z,23.85
2022-08-07T16:55:08.234Z,23.68
2022-08-07T16:58:04.429Z,23.38
2022-08-07T17:01:41.210Z,23.24
2022-08-07T17:04:31.097Z,23.12
2022-08-07T17:07:28.193Z,23.21
2022-08-07T17:10:32.716Z,23.07
2022-08-07T17:14:18.525Z,23.22
2022-08-07T17:16:56.328Z,23.31
2022-08-07T17:20:00.802Z,23.38
2022-08-07T17:23:32.270Z,23.38
2022-08-07T17:26:23.409Z,23.40
2022-08-07T17:30:14.100Z,23.49
2022-08-07T17:32:52.219Z,23.70
2022-08-07T17:35:54.910Z,24.30
2022-08-07T17:38:50.296Z,24.85
2022-08-07T17:42:01.596Z,23.88
2022-08-07T17:44:50.337Z,23.59
2022-08-07T17:48:10.360Z,23.23
2022-08-07T17:51:59.935Z,23.05
2022-08-07T17:54:53.631Z,22.87
2022-08-07T17:57:56.523Z,22.53
2022-08-07T18:00:34.213Z,22.29
2022-08-07T18:04:03.701Z,22.10
2022-08-07T18:06:36.951Z,22.00
2022-08-07T18:09:09.739Z,21.90
2022-08-07T18:12:17.308Z,21.84
2022-08-07T18:15:08.602Z,21.66
2022-08-07T18:18:47.687Z,21.62
2022-08-07T18:21:41.351Z,21.53
2022-08-07T18:24:37.139Z,21.38
2022-08-07T18:27:20.889Z,21.22
2022-08-07T18:30:31.043Z,21.05
2022-08-07T18:34:06.497Z,20.85
2022-08-07T18:38:56.297Z,20.65
2022-08-07T18:41:08.209Z,20.41
2022-08-07T18:44:12.657Z,20.18
2022-08-07T18:47:02.395Z,19.78
2022-08-07T18:50:39.702Z,19.60
2022-08-07T18:53:45.194Z,19.40
2022-08-07T18:56:57.980Z,19.26
2022-08-07T19:00:33.421Z,19.14
2022-08-07T19:03:36.172Z,19.02
2022-08-07T19:06:34.572Z,18.89
2022-08-07T19:09:55.426Z,18.83
2022-08-07T19:12:48.958Z,18.78
2022-08-07T19:16:05.826Z,18.74
2022-08-07T19:19:02.579Z,18.63
2022-08-07T19:21:56.822Z,18.49
2022-08-07T19:24:50.190Z,18.46
2022-08-07T19:30:54.655Z,18.35
2022-08-07T19:31:04.231Z,18.25
2022-08-07T19:33:13.087Z,18.19
2022-08-07T19:35:57.417Z,18.11
2022-08-07T19:38:34.091Z,18.02
2022-08-07T19:41:04.343Z,17.86
2022-08-07T19:43:46.070Z,17.80
2022-08-07T19:46:31.393Z,17.73
2022-08-07T19:49:17.440Z,17.64
2022-08-07T19:52:05.959Z,17.60
2022-08-07T19:54:56.723Z,17.57
2022-08-07T19:58:01.915Z,17.57
2022-08-07T20:00:32.145Z,17.57
2022-08-07T20:03:34.581Z,17.52
2022-08-07T20:06:04.006Z,17.47
2022-08-07T20:08:40.993Z,17.47
2022-08-07T20:11:23.104Z,17.47
2022-08-07T20:14:20.777Z,17.42
2022-08-07T20:16:54.308Z,17.32
2022-08-07T20:19:28.843Z,17.25
2022-08-07T20:22:28.993Z,17.16
2022-08-07T20:25:19.547Z,16.98
2022-08-07T20:27:58.472Z,16.91
2022-08-07T20:30:35.676Z,16.83
2022-08-07T20:33:36.573Z,16.81
2022-08-07T20:36:03.428Z,16.73
2022-08-07T20:38:35.316Z,16.69
2022-08-07T20:41:27.558Z,16.63
2022-08-07T20:44:00.038Z,16.57
2022-08-07T20:46:42.803Z,16.55
2022-08-07T20:49:57.966Z,16.49
2022-08-07T20:52:14.239Z,16.46
2022-08-07T20:54:53.242Z,16.43
2022-08-07T20:58:02.501Z,16.43
2022-08-07T21:00:44.492Z,16.39
2022-08-07T21:03:23.205Z,16.39
2022-08-07T21:06:22.361Z,16.40
2022-08-07T21:09:13.680Z,16.33
2022-08-07T21:11:50.029Z,16.26
2022-08-07T21:14:33.999Z,16.18
2022-08-07T21:18:03.121Z,16.14
2022-08-07T21:20:05.767Z,16.00
2022-08-07T21:22:45.071Z,15.98
2022-08-07T21:26:20.483Z,15.91
2022-08-07T21:29:15.685Z,15.86
2022-08-07T21:32:47.429Z,15.76
2022-08-07T21:35:12.691Z,15.71
2022-08-07T21:38:27.709Z,15.67
2022-08-07T21:41:24.613Z,15.67
2022-08-07T21:44:14.630Z,15.61
2022-08-07T21:47:23.725Z,15.54
2022-08-07T21:50:14.424Z,15.47
2022-08-07T21:53:07.796Z,15.46
2022-08-07T21:56:35.799Z,15.47
2022-08-07T22:00:03.971Z,15.35
2022-08-07T22:03:03.604Z,15.28
2022-08-07T22:05:50.084Z,15.21
2022-08-07T22:08:26.503Z,15.21
2022-08-07T22:11:03.846Z,15.17
2022-08-07T22:13:52.527Z,15.16
2022-08-07T22:16:43.194Z,15.11
2022-08-07T22:20:02.813Z,15.05
2022-08-07T22:22:46.858Z,14.96
2022-08-07T22:25:42.217Z,14.93
2022-08-07T22:28:40.848Z,14.89
2022-08-07T22:32:00.130Z,14.83
2022-08-07T22:34:52.950Z,14.77
2022-08-07T22:38:02.932Z,14.73
2022-08-07T22:41:16.361Z,14.72
2022-08-07T22:43:51.914Z,14.72
2022-08-07T22:47:06.128Z,14.63
2022-08-07T22:50:29.119Z,14.58
2022-08-07T22:54:05.695Z,14.55
2022-08-07T22:57:00.941Z,14.54
2022-08-07T23:00:08.858Z,14.49
2022-08-07T23:03:58.220Z,14.41
2022-08-07T23:07:33.600Z,14.38
2022-08-07T23:11:13.207Z,14.39
2022-08-07T23:14:23.496Z,14.39
2022-08-07T23:17:54.662Z,14.32
2022-08-07T23:20:56.478Z,14.25
2022-08-07T23:24:21.049Z,14.24
2022-08-07T23:27:34.036Z,14.22
2022-08-07T23:30:35.562Z,14.21
2022-08-07T23:34:22.649Z,14.19
2022-08-07T23:38:00.959Z,14.13
2022-08-07T23:40:53.045Z,14.06
2022-08-07T23:44:11.552Z,14.02
2022-08-07T23:47:24.526Z,13.97
2022-08-07T23:50:54.529Z,13.94
2022-08-07T23:53:49.470Z,13.91
2022-08-07T23:57:12.330Z,13.89
